createdAt,value
2022-08-07T00:02:40.575Z,15.54
2022-08-07T00:05:05.746Z,15.48
2022-08-07T00:07:40.311Z,15.55
2022-08-07T00:10:30.482Z,15.42
2022-08-07T00:13:09.921Z,15.52
2022-08-07T00:15:52.716Z,15.48
2022-08-07T00:18:25.315Z,15.42
2022-08-07T00:21:08.099Z,15.30
2022-08-07T00:23:51.700Z,15.31
2022-08-07T00:26:48.746Z,15.42
2022-08-07T00:29:08.256Z,15.31
2022-08-07T00:31:37.640Z,15.24
2022-08-07T00:34:10.057Z,15.36
2022-08-07T00:36:43.032Z,15.22
2022-08-07T00:39:17.082Z,15.12
2022-08-07T00:42:04.985Z,15.13
2022-08-07T00:44:35.374Z,15.32
2022-08-07T00:48:05.419Z,15.24
2022-08-07T00:50:18.970Z,15.31
2022-08-07T00:52:47.554Z,15.10
2022-08-07T00:55:17.452Z,15.06
2022-08-07T00:57:56.024Z,14.97
2022-08-07T01:00:25.830Z,14.81
2022-08-07T01:02:54.584Z,14.88
2022-08-07T01:05:24.527Z,14.94
2022-08-07T01:07:53.303Z,14.89
2022-08-07T01:10:23.844Z,15.08
2022-08-07T01:12:54.669Z,14.94
2022-08-07T01:16:00.883Z,14.68
2022-08-07T01:18:17.611Z,14.74
2022-08-07T01:21:22.822Z,14.61
2022-08-07T01:23:58.033Z,14.49
2022-08-07T01:26:28.202Z,14.59
2022-08-07T01:28:56.946Z,14.54
2022-08-07T01:31:42.697Z,14.53
2022-08-07T01:34:17.980Z,14.38
2022-08-07T01:36:52.536Z,14.71
2022-08-07T01:39:40.403Z,14.57
2022-08-07T01:42:38.517Z,14.53
2022-08-07T01:45:09.663Z,14.50
2022-08-07T01:48:20.924Z,14.49
2022-08-07T01:50:29.361Z,14.35
2022-08-07T01:53:08.746Z,14.34
2022-08-07T01:55:47.458Z,14.50
2022-08-07T01:58:27.766Z,14.48
2022-08-07T02:01:10.401Z,14.28
2022-08-07T02:04:07.691Z,14.27
2022-08-07T02:06:41.570Z,14.39
2022-08-07T02:09:52.344Z,14.43
2022-08-07T02:12:19.832Z,14.14
2022-08-07T02:15:06.049Z,14.09
2022-08-07T02:17:49.437Z,14.35
2022-08-07T02:20:23.878Z,14.27
2022-08-07T02:23:02.236Z,14.11
2022-08-07T02:26:30.995Z,14.00
2022-08-07T02:28:29.816Z,13.93
2022-08-07T02:31:24.695Z,13.89
2022-08-07T02:34:10.969Z,13.94
2022-08-07T02:36:46.580Z,14.08
2022-08-07T02:39:43.849Z,13.98
2022-08-07T02:42:14.521Z,13.97
2022-08-07T02:44:50.110Z,14.01
2022-08-07T02:47:23.488Z,14.24
2022-08-07T02:49:59.665Z,13.95
2022-08-07T02:52:49.367Z,13.84
2022-08-07T02:56:02.417Z,13.78
2022-08-07T02:58:23.484Z,13.74
2022-08-07T03:00:59.388Z,13.68
2022-08-07T03:03:49.130Z,13.71
2022-08-07T03:06:25.469Z,13.58
2022-08-07T03:08:56.146Z,13.67
2022-08-07T03:11:28.250Z,13.63
2022-08-07T03:14:01.586Z,13.57
2022-08-07T03:16:32.283Z,13.44
2022-08-07T03:19:02.950Z,13.51
2022-08-07T03:21:33.522Z,13.42
2022-08-07T03:24:20.298Z,13.45
2022-08-07T03:26:59.032Z,13.46
2022-08-07T03:29:39.872Z,13.46
2022-08-07T03:32:18.922Z,13.42
2022-08-07T03:35:01.068Z,13.45
2022-08-07T03:37:46.376Z,13.31
2022-08-07T03:40:27.554Z,13.33
2022-08-07T03:43:02.069Z,13.25
2022-08-07T03:45:34.567Z,13.32
2022-08-07T03:48:12.690Z,13.34
2022-08-07T03:50:43.241Z,13.29
2022-08-07T03:54:01.851Z,13.39
2022-08-07T03:56:33.011Z,13.45
2022-08-07T03:59:09.882Z,13.61
2022-08-07T04:01:46.429Z,13.44
2022-08-07T04:04:19.334Z,13.37
2022-08-07T04:06:53.247Z,13.37
2022-08-07T04:09:25.692Z,13.42
2022-08-07T04:12:25.319Z,13.44
2022-08-07T04:15:00.213Z,13.56
2022-08-07T04:18:19.674Z,13.57
2022-08-07T04:20:20.161Z,13.55
2022-08-07T04:22:53.346Z,13.57
2022-08-07T04:25:24.318Z,13.55
2022-08-07T04:27:59.222Z,13.63
2022-08-07T04:30:39.633Z,13.73
2022-08-07T04:33:25.658Z,13.76
2022-08-07T04:35:55.763Z,13.79
2022-08-07T04:38:29.649Z,13.81
2022-08-07T04:40:59.531Z,13.66
2022-08-07T04:44:09.689Z,13.77
2022-08-07T04:47:07.895Z,13.86
2022-08-07T04:50:16.334Z,13.89
2022-08-07T04:53:27.957Z,13.91
2022-08-07T04:58:15.191Z,14.06
2022-08-07T05:00:11.988Z,13.95
2022-08-07T05:02:26.828Z,14.13
2022-08-07T05:05:53.633Z,14.14
2022-08-07T05:08:59.741Z,14.27
2022-08-07T05:11:57.407Z,14.29
2022-08-07T05:14:55.127Z,14.26
2022-08-07T05:17:51.990Z,14.38
2022-08-07T05:20:27.237Z,14.51
2022-08-07T05:23:15.628Z,14.54
2022-08-07T05:26:10.726Z,14.46
2022-08-07T05:28:40.569Z,14.50
2022-08-07T05:31:14.610Z,14.73
2022-08-07T05:34:01.492Z,14.80
2022-08-07T05:36:39.210Z,14.85
2022-08-07T05:40:05.208Z,14.86
2022-08-07T05:42:12.421Z,15.07
2022-08-07T05:44:52.841Z,14.97
2022-08-07T05:47:38.416Z,15.01
2022-08-07T05:50:24.098Z,15.23
2022-08-07T05:52:52.456Z,15.23
2022-08-07T05:55:21.878Z,15.37
2022-08-07T05:57:54.231Z,15.40
2022-08-07T06:00:25.679Z,15.45
2022-08-07T06:03:06.831Z,15.61
2022-08-07T06:05:35.317Z,15.64
2022-08-07T06:08:29.508Z,15.91
2022-08-07T06:10:58.678Z,15.84
2022-08-07T06:14:10.673Z,15.97
2022-08-07T06:16:18.084Z,16.09
2022-08-07T06:18:51.899Z,16.16
2022-08-07T06:22:14.461Z,16.19
2022-08-07T06:24:52.437Z,16.32
2022-08-07T06:27:04.824Z,16.44
2022-08-07T06:29:38.760Z,16.52
2022-08-07T06:32:08.591Z,16.72
2022-08-07T06:34:36.847Z,16.80
2022-08-07T06:37:09.379Z,16.81
2022-08-07T06:40:16.015Z,16.94
2022-08-07T06:42:37.477Z,17.07
2022-08-07T06:45:22.629Z,17.34
2022-08-07T06:47:59.533Z,17.30
2022-08-07T06:50:39.465Z,17.48
2022-08-07T06:54:12.131Z,17.79
2022-08-07T06:56:15.004Z,17.64
2022-08-07T07:00:12.532Z,17.70
2022-08-07T07:01:48.749Z,17.94
2022-08-07T07:04:28.056Z,17.98
2022-08-07T07:07:19.469Z,18.01
2022-08-07T07:09:52.292Z,18.07
2022-08-07T07:12:31.273Z,18.16
2022-08-07T07:15:24.123Z,18.28
2022-08-07T07:18:37.655Z,18.42
2022-08-07T07:22:04.545Z,18.50
2022-08-07T07:24:18.734Z,18.54
2022-08-07T07:26:52.569Z,18.62
2022-08-07T07:29:57.124Z,18.90
2022-08-07T07:32:18.775Z,18.96
2022-08-07T07:34:52.677Z,18.91
2022-08-07T07:37:49.557Z,19.08
2022-08-07T07:40:18.784Z,19.28
2022-08-07T07:42:54.032Z,19.33
2022-08-07T07:46:38.199Z,19.38
2022-08-07T07:48:35.072Z,19.50
2022-08-07T07:51:08.143Z,19.57
2022-08-07T07:53:51.382Z,19.73
2022-08-07T07:56:30.306Z,19.63
2022-08-07T07:59:02.028Z,19.88
2022-08-07T08:02:04.769Z,20.09
2022-08-07T08:04:30.875Z,19.91
2022-08-07T08:07:02.801Z,19.89
2022-08-07T08:09:51.770Z,20.22
2022-08-07T08:12:52.000Z,20.44
2022-08-07T08:15:17.221Z,20.46
2022-08-07T08:17:57.287Z,20.47
2022-08-07T08:20:33.078Z,20.62
2022-08-07T08:23:27.905Z,21.01
2022-08-07T08:26:21.362Z,21.24
2022-08-07T08:28:54.464Z,21.52
2022-08-07T08:31:59.038Z,20.98
2022-08-07T08:34:34.033Z,21.93
2022-08-07T08:37:09.902Z,21.75
2022-08-07T08:39:58.638Z,20.83
2022-08-07T08:42:51.634Z,22.20
2022-08-07T08:45:42.039Z,22.63
2022-08-07T08:48:51.560Z,23.45
2022-08-07T08:51:49.751Z,22.27
2022-08-07T08:54:45.014Z,22.44
2022-08-07T08:57:40.379Z,23.74
2022-08-07T09:00:12.143Z,23.92
2022-08-07T09:02:59.400Z,23.48
2022-08-07T09:05:37.808Z,21.81
2022-08-07T09:08:41.349Z,23.88
2022-08-07T09:11:50.751Z,23.37
2022-08-07T09:14:50.552Z,23.20
2022-08-07T09:18:01.294Z,23.25
2022-08-07T09:21:57.857Z,23.19
2022-08-07T09:24:58.566Z,23.05
2022-08-07T09:28:00.710Z,20.98
2022-08-07T09:31:03.026Z,20.60
2022-08-07T09:34:15.850Z,20.81
2022-08-07T09:37:06.273Z,20.87
2022-08-07T09:39:54.796Z,21.70
2022-08-07T09:42:58.857Z,21.37
2022-08-07T09:47:24.304Z,21.94
2022-08-07T09:50:01.995Z,22.88
2022-08-07T09:52:51.850Z,23.77
2022-08-07T09:56:03.193Z,24.72
2022-08-07T09:59:29.436Z,24.88
2022-08-07T10:02:24.678Z,24.29
2022-08-07T10:05:59.390Z,24.38
2022-08-07T10:09:00.508Z,22.73
2022-08-07T10:12:15.120Z,23.44
2022-08-07T10:15:21.992Z,23.43
2022-08-07T10:18:15.523Z,22.27
2022-08-07T10:21:19.745Z,23.06
2022-08-07T10:24:38.105Z,22.92
2022-08-07T10:27:17.679Z,23.27
2022-08-07T10:30:07.126Z,23.47
2022-08-07T10:34:06.265Z,22.96
2022-08-07T10:36:48.876Z,22.50
2022-08-07T10:40:03.059Z,25.09
2022-08-07T10:42:57.489Z,23.77
2022-08-07T10:45:48.095Z,21.60
2022-08-07T10:49:02.356Z,23.20
2022-08-07T10:52:12.934Z,24.21
2022-08-07T10:55:00.889Z,23.23
2022-08-07T10:58:17.058Z,23.60
2022-08-07T11:01:19.249Z,23.33
2022-08-07T11:04:31.613Z,23.20
2022-08-07T11:07:58.981Z,24.03
2022-08-07T11:10:52.405Z,24.83
2022-08-07T11:14:46.296Z,24.87
2022-08-07T11:17:07.368Z,24.50
2022-08-07T11:20:07.862Z,24.50
2022-08-07T11:22:58.456Z,24.60
2022-08-07T11:25:47.850Z,24.97
2022-08-07T11:28:34.199Z,25.69
2022-08-07T11:31:35.129Z,26.74
2022-08-07T11:34:35.971Z,27.00
2022-08-07T11:37:58.078Z,27.27
2022-08-07T11:41:22.229Z,26.57
2022-08-07T11:44:20.817Z,24.48
2022-08-07T11:48:13.705Z,27.05
2022-08-07T11:51:41.657Z,27.85
2022-08-07T11:54:38.506Z,27.50
2022-08-07T11:58:00.092Z,26.95
2022-08-07T12:00:53.606Z,27.85
2022-08-07T12:04:05.195Z,28.38
2022-08-07T12:06:50.838Z,28.04
2022-08-07T12:09:55.378Z,28.40
2022-08-07T12:12:55.260Z,26.15
2022-08-07T12:16:06.796Z,28.42
2022-08-07T12:19:14.607Z,28.35
2022-08-07T12:22:38.654Z,28.79
2022-08-07T12:26:03.272Z,28.01
2022-08-07T12:29:20.284Z,26.20
2022-08-07T12:32:04.184Z,28.70
2022-08-07T12:34:38.917Z,29.34
2022-08-07T12:37:22.946Z,27.86
2022-08-07T12:39:57.452Z,26.61
2022-08-07T12:42:32.197Z,26.11
2022-08-07T12:45:14.915Z,26.81
2022-08-07T12:48:27.679Z,27.38
2022-08-07T12:51:13.115Z,28.84
2022-08-07T12:54:36.560Z,29.72
2022-08-07T12:57:12.640Z,27.11
2022-08-07T12:59:55.832Z,25.20
2022-08-07T13:02:57.924Z,28.24
2022-08-07T13:06:02.732Z,25.29
2022-08-07T13:08:56.514Z,27.06
2022-08-07T13:12:02.253Z,24.32
2022-08-07T13:14:56.867Z,23.79
2022-08-07T13:18:03.582Z,24.43
2022-08-07T13:20:51.125Z,23.98
2022-08-07T13:24:01.821Z,23.36
2022-08-07T13:27:13.129Z,25.79
2022-08-07T13:29:58.073Z,26.65
2022-08-07T13:32:55.255Z,27.84
2022-08-07T13:35:59.523Z,28.12
2022-08-07T13:38:45.480Z,28.57
2022-08-07T13:41:49.595Z,25.33
2022-08-07T13:44:37.044Z,24.94
2022-08-07T13:47:15.935Z,24.86
2022-08-07T13:50:33.401Z,26.88
2022-08-07T13:52:51.798Z,28.42
2022-08-07T13:55:25.790Z,28.66
2022-08-07T13:58:34.143Z,27.91
2022-08-07T14:01:20.392Z,28.93
2022-08-07T14:04:06.741Z,26.86
2022-08-07T14:06:41.920Z,27.74
2022-08-07T14:10:02.191Z,27.71
2022-08-07T14:12:56.448Z,26.85
2022-08-07T14:15:40.651Z,27.68
2022-08-07T14:18:28.924Z,27.89
2022-08-07T14:22:02.318Z,26.08
2022-08-07T14:24:42.119Z,25.00
2022-08-07T14:28:09.407Z,26.39
2022-08-07T14:30:11.751Z,27.36
2022-08-07T14:32:55.876Z,27.86
2022-08-07T14:35:45.073Z,25.30
2022-08-07T14:38:30.700Z,25.41
2022-08-07T14:41:12.437Z,26.99
2022-08-07T14:43:57.264Z,26.43
2022-08-07T14:46:32.455Z,25.08
2022-08-07T14:54:54.268Z,25.33
2022-08-07T14:57:25.394Z,24.67
2022-08-07T15:00:20.656Z,25.73
2022-08-07T15:11:52.879Z,25.17
2022-08-07T15:17:18.912Z,25.86
2022-08-07T15:20:32.368Z,27.09
2022-08-07T15:22:53.926Z,26.10
2022-08-07T15:25:36.749Z,26.87
2022-08-07T15:28:34.962Z,27.41
2022-08-07T15:34:00.884Z,27.93
2022-08-07T15:37:02.691Z,28.35
2022-08-07T15:39:27.156Z,28.58
2022-08-07T15:42:47.827Z,26.72
2022-08-07T15:45:22.181Z,27.44
2022-08-07T15:48:03.114Z,27.61
2022-08-07T15:51:01.530Z,26.52
2022-08-07T15:53:52.779Z,27.69
2022-08-07T15:56:46.130Z,27.14
2022-08-07T15:59:20.367Z,26.42
2022-08-07T16:02:23.832Z,27.94
2022-08-07T16:05:15.347Z,26.84
2022-08-07T16:08:30.621Z,25.74
2022-08-07T16:10:52.436Z,26.86
2022-08-07T16:14:11.702Z,26.85
2022-08-07T16:18:02.639Z,26.87
2022-08-07T16:20:55.251Z,26.87
2022-08-07T16:24:35.056Z,27.11
2022-08-07T16:27:19.063Z,26.66
2022-08-07T16:30:30.298Z,25.09
2022-08-07T16:34:01.549Z,25.37
2022-08-07T16:36:20.684Z,24.85
2022-08-07T16:39:10.755Z,25.67
2022-08-07T16:42:45.302Z,24.69
2022-08-07T16:46:40.486Z,26.28
2022-08-07T16:50:28.507Z,27.25
2022-08-07T16:52:52.802Z,26.89
2022-08-07T16:55:47.274Z,26.34
2022-08-07T16:59:14.366Z,25.71
2022-08-07T17:02:52.476Z,26.55
2022-08-07T17:06:19.898Z,25.74
2022-08-07T17:09:09.116Z,25.38
2022-08-07T17:12:04.434Z,26.39
2022-08-07T17:15:04.449Z,26.09
2022-08-07T17:17:46.932Z,25.17
2022-08-07T17:20:37.546Z,25.76
2022-08-07T17:23:22.412Z,26.51
2022-08-07T17:26:34.867Z,26.78
2022-08-07T17:30:16.193Z,25.29
2022-08-07T17:32:54.773Z,24.96
2022-08-07T17:36:04.895Z,26.17
2022-08-07T17:39:10.205Z,26.27
2022-08-07T17:42:03.582Z,26.19
2022-08-07T17:44:54.811Z,26.54
2022-08-07T17:47:54.255Z,26.68
2022-08-07T17:50:34.169Z,26.64
2022-08-07T17:54:01.039Z,26.32
2022-08-07T17:56:30.161Z,26.59
2022-08-07T17:59:10.599Z,26.60
2022-08-07T18:02:10.870Z,26.06
2022-08-07T18:05:21.733Z,25.19
2022-08-07T18:08:23.940Z,24.27
2022-08-07T18:12:17.845Z,24.03
2022-08-07T18:14:37.547Z,24.42
2022-08-07T18:18:47.362Z,24.23
2022-08-07T18:21:10.477Z,24.62
2022-08-07T18:24:00.728Z,24.10
2022-08-07T18:26:40.759Z,24.59
2022-08-07T18:30:04.658Z,24.86
2022-08-07T18:33:15.251Z,25.07
2022-08-07T18:36:33.324Z,24.84
2022-08-07T18:40:05.197Z,24.54
2022-08-07T18:42:56.036Z,23.75
2022-08-07T18:46:21.947Z,24.00
2022-08-07T18:50:19.375Z,24.38
2022-08-07T18:52:34.806Z,24.38
2022-08-07T18:55:57.890Z,24.21
2022-08-07T18:59:07.677Z,23.97
2022-08-07T19:02:18.068Z,23.06
2022-08-07T19:05:10.689Z,23.18
2022-08-07T19:08:17.424Z,23.58
2022-08-07T19:11:35.653Z,23.57
2022-08-07T19:14:20.051Z,23.07
2022-08-07T19:17:07.119Z,22.41
2022-08-07T19:20:29.928Z,22.68
2022-08-07T19:23:18.390Z,22.07
2022-08-07T19:26:23.929Z,22.14
2022-08-07T19:30:55.676Z,21.97
2022-08-07T19:32:10.556Z,22.36
2022-08-07T19:34:36.354Z,22.13
2022-08-07T19:37:17.798Z,21.66
2022-08-07T19:40:02.105Z,22.17
2022-08-07T19:42:40.278Z,22.43
2022-08-07T19:46:09.254Z,22.64
2022-08-07T19:48:18.092Z,22.75
2022-08-07T19:50:53.174Z,22.69
2022-08-07T19:54:34.783Z,22.69
2022-08-07T19:58:01.820Z,22.02
2022-08-07T19:59:08.704Z,22.37
2022-08-07T20:01:56.139Z,22.38
2022-08-07T20:04:43.130Z,22.33
2022-08-07T20:07:46.638Z,22.22
2022-08-07T20:10:35.220Z,22.15
2022-08-07T20:13:26.689Z,22.07
2022-08-07T20:15:58.331Z,21.84
2022-08-07T20:18:34.474Z,21.74
2022-08-07T20:21:21.155Z,21.93
2022-08-07T20:24:01.045Z,21.60
2022-08-07T20:26:45.071Z,21.64
2022-08-07T20:29:48.179Z,21.66
2022-08-07T20:32:22.617Z,21.56
2022-08-07T20:35:00.090Z,21.22
2022-08-07T20:37:33.956Z,21.27
2022-08-07T20:40:31.170Z,21.28
2022-08-07T20:43:09.456Z,21.46
2022-08-07T20:46:28.202Z,21.35
2022-08-07T20:48:36.059Z,21.03
2022-08-07T20:51:09.820Z,20.89
2022-08-07T20:54:03.057Z,20.71
2022-08-07T20:56:32.524Z,20.28
2022-08-07T20:59:05.985Z,20.63
2022-08-07T21:01:58.225Z,20.97
2022-08-07T21:04:31.561Z,20.94
2022-08-07T21:07:04.336Z,20.85
2022-08-07T21:09:52.628Z,20.69
2022-08-07T21:12:31.705Z,20.61
2022-08-07T21:15:07.075Z,20.61
2022-08-07T21:18:02.796Z,20.53
2022-08-07T21:20:33.523Z,20.25
2022-08-07T21:23:28.242Z,20.05
2022-08-07T21:26:13.761Z,20.42
2022-08-07T21:28:59.467Z,20.23
2022-08-07T21:32:47.534Z,19.87
2022-08-07T21:34:58.133Z,20.18
2022-08-07T21:37:58.039Z,19.87
2022-08-07T21:41:00.520Z,19.83
2022-08-07T21:44:28.354Z,19.68
2022-08-07T21:47:04.750Z,19.73
2022-08-07T21:50:01.886Z,19.60
2022-08-07T21:53:07.709Z,19.53
2022-08-07T21:56:07.321Z,19.59
2022-08-07T21:59:21.839Z,19.50
2022-08-07T22:02:13.379Z,19.66
2022-08-07T22:04:51.232Z,19.30
2022-08-07T22:07:31.588Z,19.24
2022-08-07T22:10:22.194Z,19.14
2022-08-07T22:13:02.753Z,18.99
2022-08-07T22:16:42.548Z,19.02
2022-08-07T22:19:23.707Z,19.07
2022-08-07T22:22:27.526Z,19.09
2022-08-07T22:25:26.579Z,18.84
2022-08-07T22:28:30.917Z,18.62
2022-08-07T22:31:56.477Z,18.65
2022-08-07T22:34:28.873Z,18.79
2022-08-07T22:37:17.020Z,18.64
2022-08-07T22:40:15.124Z,18.48
2022-08-07T22:42:49.445Z,18.49
2022-08-07T22:46:21.790Z,18.59
2022-08-07T22:49:09.498Z,18.54
2022-08-07T22:52:11.806Z,18.28
2022-08-07T22:55:30.015Z,18.35
2022-08-07T22:58:31.874Z,18.27
2022-08-07T23:01:49.911Z,18.16
2022-08-07T23:06:08.180Z,18.09
2022-08-07T23:08:51.584Z,17.99
2022-08-07T23:12:06.179Z,17.88
2022-08-07T23:15:01.681Z,17.93
2022-08-07T23:17:59.512Z,17.99
2022-08-07T23:20:53.183Z,18.12
2022-08-07T23:24:11.891Z,18.19
2022-08-07T23:27:33.659Z,18.03
2022-08-07T23:30:38.106Z,17.71
2022-08-07T23:34:34.806Z,17.82
2022-08-07T23:37:19.128Z,17.75
2022-08-07T23:40:31.064Z,17.67
2022-08-07T23:43:40.010Z,17.69
2022-08-07T23:46:48.694Z,17.43
2022-08-07T23:49:57.266Z,17.30
2022-08-07T23:53:49.575Z,17.23
2022-08-07T23:56:31.154Z,17.11
